createdAt,value
2023-10-22T00:01:28.472Z,63.68
2023-10-22T00:04:00.266Z,63.78
2023-10-22T00:06:32.729Z,64.25
2023-10-22T00:09:04.575Z,64.33
2023-10-22T00:11:36.397Z,64.24
2023-10-22T00:14:08.694Z,64.18
2023-10-22T00:16:40.297Z,64.60
2023-10-22T00:19:11.940Z,64.83
2023-10-22T00:21:44.215Z,64.25
2023-10-22T00:24:16.087Z,64.11
2023-10-22T00:26:48.461Z,63.89
2023-10-22T00:29:20.574Z,63.66
2023-10-22T00:31:52.492Z,63.98
2023-10-22T00:34:24.358Z,63.83
2023-10-22T00:36:56.318Z,63.76
2023-10-22T00:39:28.120Z,64.58
2023-10-22T00:41:59.802Z,64.72
2023-10-22T00:44:31.781Z,64.83
2023-10-22T00:47:04.085Z,64.57
2023-10-22T00:49:36.611Z,64.46
2023-10-22T00:52:09.419Z,64.92
2023-10-22T00:54:41.467Z,64.50
2023-10-22T00:57:13.371Z,64.36
2023-10-22T00:59:45.205Z,64.55
2023-10-22T01:02:17.321Z,64.42
2023-10-22T01:04:49.052Z,64.64
2023-10-22T01:07:21.740Z,64.47
2023-10-22T01:09:53.180Z,64.57
2023-10-22T01:12:24.847Z,64.32
2023-10-22T01:14:56.552Z,64.48
2023-10-22T01:17:28.468Z,64.28
2023-10-22T01:20:00.384Z,64.81
2023-10-22T01:22:31.874Z,64.93
2023-10-22T01:25:03.544Z,65.35
2023-10-22T01:27:38.021Z,65.08
2023-10-22T01:30:11.536Z,64.96
2023-10-22T01:32:43.148Z,65.27
2023-10-22T01:35:14.982Z,64.73
2023-10-22T01:37:46.687Z,64.85
2023-10-22T01:40:18.686Z,65.05
2023-10-22T01:42:51.638Z,65.68
2023-10-22T01:45:23.868Z,65.95
2023-10-22T01:47:55.966Z,65.61
2023-10-22T01:50:27.694Z,65.63
2023-10-22T01:52:59.229Z,65.45
2023-10-22T01:55:30.952Z,66.09
2023-10-22T01:58:02.747Z,66.01
2023-10-22T02:00:34.610Z,65.79
2023-10-22T02:03:06.731Z,65.28
2023-10-22T02:05:38.725Z,65.32
2023-10-22T02:08:10.744Z,66.40
2023-10-22T02:10:42.610Z,66.09
2023-10-22T02:13:14.505Z,65.98
2023-10-22T02:15:46.223Z,66.78
2023-10-22T02:18:18.186Z,66.97
2023-10-22T02:20:57.945Z,66.59
2023-10-22T02:23:30.255Z,66.59
2023-10-22T02:26:02.018Z,67.38
2023-10-22T02:28:33.786Z,67.38
2023-10-22T02:31:06.635Z,66.94
2023-10-22T02:33:40.372Z,66.16
2023-10-22T02:36:12.161Z,66.48
2023-10-22T02:38:44.117Z,67.03
2023-10-22T02:41:15.645Z,66.43
2023-10-22T02:43:47.331Z,67.13
2023-10-22T02:46:19.540Z,68.02
2023-10-22T02:48:51.094Z,67.38
2023-10-22T02:51:23.524Z,67.07
2023-10-22T02:53:55.096Z,66.34
2023-10-22T02:56:26.931Z,66.95
2023-10-22T02:58:58.578Z,67.50
2023-10-22T03:01:32.074Z,67.57
2023-10-22T03:04:04.116Z,68.16
2023-10-22T03:06:35.914Z,68.40
2023-10-22T03:09:08.555Z,68.00
2023-10-22T03:11:40.098Z,68.33
2023-10-22T03:14:11.775Z,67.72
2023-10-22T03:16:44.389Z,67.72
2023-10-22T03:19:18.037Z,67.83
2023-10-22T03:21:49.745Z,67.89
2023-10-22T03:24:24.027Z,68.28
2023-10-22T03:26:55.692Z,67.09
2023-10-22T03:29:28.500Z,67.85
2023-10-22T03:32:00.278Z,68.28
2023-10-22T03:34:31.958Z,68.42
2023-10-22T03:37:05.860Z,68.57
2023-10-22T03:39:38.675Z,68.43
2023-10-22T03:42:10.773Z,68.73
2023-10-22T03:44:42.667Z,69.25
2023-10-22T03:47:14.241Z,68.46
2023-10-22T03:49:46.230Z,68.20
2023-10-22T03:52:18.386Z,69.29
2023-10-22T03:54:50.007Z,69.39
2023-10-22T03:57:21.668Z,69.83
2023-10-22T03:59:53.293Z,69.64
2023-10-22T04:02:25.309Z,70.10
2023-10-22T04:04:57.027Z,69.58
2023-10-22T04:07:28.553Z,69.09
2023-10-22T04:10:00.272Z,69.09
2023-10-22T04:12:34.575Z,69.46
2023-10-22T04:15:07.591Z,69.61
2023-10-22T04:17:39.484Z,69.11
2023-10-22T04:20:14.235Z,68.56
2023-10-22T04:22:46.746Z,69.41
2023-10-22T04:25:18.569Z,68.90
2023-10-22T04:27:51.312Z,68.34
2023-10-22T04:30:23.634Z,68.79
2023-10-22T04:32:55.446Z,69.19
2023-10-22T04:35:27.029Z,69.56
2023-10-22T04:37:58.658Z,69.14
2023-10-22T04:40:35.189Z,69.13
2023-10-22T04:43:06.874Z,69.90
2023-10-22T04:45:38.404Z,69.74
2023-10-22T04:48:10.261Z,69.07
2023-10-22T04:50:42.592Z,68.99
2023-10-22T04:53:14.508Z,69.86
2023-10-22T04:55:46.047Z,69.13
2023-10-22T04:58:17.558Z,69.13
2023-10-22T05:00:51.374Z,69.85
2023-10-22T05:03:23.563Z,69.52
2023-10-22T05:05:56.553Z,69.80
2023-10-22T05:08:28.616Z,69.39
2023-10-22T05:11:00.292Z,70.13
2023-10-22T05:13:31.786Z,70.23
2023-10-22T05:16:04.054Z,69.93
2023-10-22T05:18:35.926Z,69.87
2023-10-22T05:21:09.213Z,71.11
2023-10-22T05:23:40.899Z,70.57
2023-10-22T05:26:14.040Z,70.14
2023-10-22T05:28:46.139Z,70.42
2023-10-22T05:31:20.342Z,71.09
2023-10-22T05:33:52.814Z,70.47
2023-10-22T05:36:24.865Z,69.85
2023-10-22T05:38:56.453Z,69.63
2023-10-22T05:41:29.265Z,69.87
2023-10-22T05:44:02.870Z,70.30
2023-10-22T05:46:36.492Z,69.88
2023-10-22T05:49:09.175Z,69.47
2023-10-22T05:51:40.917Z,69.55
2023-10-22T05:54:12.972Z,69.41
2023-10-22T05:56:44.756Z,70.11
2023-10-22T05:59:16.505Z,69.76
2023-10-22T06:01:48.186Z,68.96
2023-10-22T06:04:20.012Z,69.13
2023-10-22T06:06:51.688Z,69.75
2023-10-22T06:09:23.315Z,69.74
2023-10-22T06:11:55.171Z,69.15
2023-10-22T06:14:26.732Z,69.59
2023-10-22T06:16:58.251Z,69.43
2023-10-22T06:19:29.777Z,70.10
2023-10-22T06:22:01.357Z,69.76
2023-10-22T06:24:34.355Z,69.77
2023-10-22T06:27:06.752Z,70.51
2023-10-22T06:29:38.638Z,70.03
2023-10-22T06:32:10.532Z,69.97
2023-10-22T06:34:42.151Z,70.10
2023-10-22T06:37:13.707Z,70.51
2023-10-22T06:39:45.980Z,70.72
2023-10-22T06:42:17.745Z,70.19
2023-10-22T06:44:49.836Z,70.05
2023-10-22T06:47:21.785Z,69.49
2023-10-22T06:49:53.457Z,69.23
2023-10-22T06:52:26.156Z,70.00
2023-10-22T06:54:58.871Z,70.05
2023-10-22T06:57:30.830Z,69.84
2023-10-22T07:00:02.845Z,70.10
2023-10-22T07:02:36.903Z,70.13
2023-10-22T07:05:11.927Z,70.05
2023-10-22T07:07:44.505Z,69.78
2023-10-22T07:10:16.370Z,69.66
2023-10-22T07:12:47.974Z,69.95
2023-10-22T07:15:19.957Z,69.36
2023-10-22T07:17:51.750Z,68.54
2023-10-22T07:20:23.654Z,68.56
2023-10-22T07:22:55.589Z,68.71
2023-10-22T07:25:27.137Z,67.73
2023-10-22T07:27:58.732Z,66.95
2023-10-22T07:30:31.108Z,66.45
2023-10-22T07:33:03.675Z,66.74
2023-10-22T07:35:35.584Z,66.68
2023-10-22T07:38:08.053Z,66.28
2023-10-22T07:40:41.701Z,66.14
2023-10-22T07:43:13.934Z,66.55
2023-10-22T07:45:46.938Z,66.83
2023-10-22T07:48:19.394Z,66.38
2023-10-22T07:50:53.076Z,65.70
2023-10-22T07:53:25.098Z,65.82
2023-10-22T07:55:57.468Z,65.25
2023-10-22T07:58:30.536Z,65.11
2023-10-22T08:01:02.775Z,64.83
2023-10-22T08:03:35.893Z,64.12
2023-10-22T08:06:09.382Z,64.71
2023-10-22T08:08:41.477Z,65.03
2023-10-22T08:11:13.588Z,65.18
2023-10-22T08:13:45.953Z,65.18
2023-10-22T08:16:19.060Z,65.13
2023-10-22T08:18:51.370Z,65.83
2023-10-22T08:21:24.055Z,65.57
2023-10-22T08:23:56.185Z,65.42
2023-10-22T08:26:28.731Z,65.37
2023-10-22T08:29:00.448Z,65.50
2023-10-22T08:31:33.493Z,65.84
2023-10-22T08:34:06.485Z,65.50
2023-10-22T08:36:39.894Z,64.43
2023-10-22T08:39:12.923Z,65.13
2023-10-22T08:41:57.145Z,65.54
2023-10-22T08:44:33.258Z,65.33
2023-10-22T08:47:05.567Z,65.34
2023-10-22T08:49:44.006Z,65.47
2023-10-22T08:52:16.326Z,64.97
2023-10-22T08:54:49.615Z,64.62
2023-10-22T08:57:24.671Z,64.35
2023-10-22T08:59:57.854Z,64.62
2023-10-22T09:02:31.024Z,64.16
2023-10-22T09:05:03.531Z,62.96
2023-10-22T09:07:56.222Z,63.10
2023-10-22T09:10:34.343Z,63.14
2023-10-22T09:13:16.825Z,64.54
2023-10-22T09:15:51.480Z,65.58
2023-10-22T09:18:23.840Z,65.88
2023-10-22T09:21:06.893Z,66.08
2023-10-22T09:23:40.947Z,66.76
2023-10-22T09:26:14.749Z,67.12
2023-10-22T09:28:48.869Z,67.00
2023-10-22T09:31:26.953Z,67.45
2023-10-22T09:33:58.955Z,68.08
2023-10-22T09:36:31.053Z,67.60
2023-10-22T09:39:05.928Z,67.82
2023-10-22T09:41:38.915Z,67.57
2023-10-22T09:44:10.811Z,67.96
2023-10-22T09:46:43.870Z,67.88
2023-10-22T09:49:20.105Z,67.39
2023-10-22T09:51:57.035Z,67.20
2023-10-22T09:54:38.577Z,66.95
2023-10-22T09:57:17.952Z,67.68
2023-10-22T09:59:49.743Z,69.26
2023-10-22T10:02:22.754Z,69.91
2023-10-22T10:04:55.935Z,70.45
2023-10-22T10:07:29.296Z,70.95
2023-10-22T10:10:06.717Z,70.23
2023-10-22T10:12:41.445Z,69.54
2023-10-22T10:15:34.453Z,68.58
2023-10-22T10:18:09.440Z,68.18
2023-10-22T10:20:47.084Z,68.49
2023-10-22T10:23:21.782Z,67.63
2023-10-22T10:25:54.740Z,67.64
2023-10-22T10:28:46.666Z,67.75
2023-10-22T10:31:42.084Z,68.31
2023-10-22T10:34:24.502Z,67.76
2023-10-22T10:36:57.492Z,67.56
2023-10-22T10:39:45.077Z,67.73
2023-10-22T10:42:35.677Z,68.04
2023-10-22T10:45:10.227Z,68.13
2023-10-22T10:47:42.894Z,68.22
2023-10-22T10:50:20.838Z,69.60
2023-10-22T10:53:04.085Z,69.97
2023-10-22T10:55:36.469Z,69.80
2023-10-22T10:58:08.536Z,69.51
2023-10-22T11:00:47.701Z,70.17
2023-10-22T11:03:26.051Z,70.38
2023-10-22T11:05:58.175Z,69.63
2023-10-22T11:08:32.135Z,70.15
2023-10-22T11:11:16.900Z,70.86
2023-10-22T11:13:48.704Z,70.82
2023-10-22T11:16:20.537Z,70.71
2023-10-22T11:18:59.432Z,70.18
2023-10-22T11:21:31.957Z,70.50
2023-10-22T11:24:03.743Z,71.00
2023-10-22T11:26:35.605Z,71.10
2023-10-22T11:29:07.428Z,70.54
2023-10-22T11:31:39.429Z,69.93
2023-10-22T11:34:17.905Z,68.98
2023-10-22T11:36:49.725Z,69.53
2023-10-22T11:39:38.368Z,69.30
2023-10-22T11:42:15.000Z,69.14
2023-10-22T11:44:50.863Z,68.60
2023-10-22T11:47:34.407Z,67.99
2023-10-22T11:50:07.979Z,68.01
2023-10-22T11:52:55.645Z,67.72
2023-10-22T11:55:37.262Z,67.27
2023-10-22T11:58:19.805Z,67.14
2023-10-22T12:00:52.636Z,67.41
2023-10-22T12:03:25.160Z,67.05
2023-10-22T12:05:57.753Z,66.25
2023-10-22T12:08:30.153Z,66.05
2023-10-22T12:11:01.932Z,65.68
2023-10-22T12:13:34.276Z,65.37
2023-10-22T12:16:06.213Z,64.91
2023-10-22T12:18:37.947Z,64.76
2023-10-22T12:21:09.718Z,64.70
2023-10-22T12:23:48.864Z,64.64
2023-10-22T12:26:21.781Z,64.65
2023-10-22T12:28:53.497Z,63.88
2023-10-22T12:31:25.272Z,63.29
2023-10-22T12:33:57.274Z,63.51
2023-10-22T12:36:29.298Z,63.71
2023-10-22T12:39:01.270Z,63.07
2023-10-22T12:41:33.216Z,62.48
2023-10-22T12:44:05.953Z,62.59
2023-10-22T12:46:37.692Z,62.95
2023-10-22T12:49:09.883Z,63.33
2023-10-22T12:51:41.543Z,64.47
2023-10-22T12:54:13.750Z,63.63
2023-10-22T12:56:45.578Z,63.00
2023-10-22T12:59:17.288Z,62.94
2023-10-22T13:01:48.943Z,63.39
2023-10-22T13:04:21.841Z,63.77
2023-10-22T13:06:53.898Z,63.55
2023-10-22T13:09:25.837Z,63.55
2023-10-22T13:11:57.506Z,63.57
2023-10-22T13:14:29.366Z,63.67
2023-10-22T13:17:01.000Z,63.13
2023-10-22T13:19:32.722Z,62.88
2023-10-22T13:22:05.252Z,63.04
2023-10-22T13:24:37.413Z,63.65
2023-10-22T13:27:09.941Z,63.91
2023-10-22T13:29:41.733Z,63.38
2023-10-22T13:32:14.362Z,63.05
2023-10-22T13:34:48.623Z,62.51
2023-10-22T13:37:20.313Z,62.74
2023-10-22T13:39:52.433Z,62.09
2023-10-22T13:42:24.105Z,62.15
2023-10-22T13:44:56.032Z,62.39
2023-10-22T13:47:27.919Z,63.52
2023-10-22T13:50:00.198Z,63.49
2023-10-22T13:52:32.102Z,62.96
2023-10-22T13:55:04.271Z,62.56
2023-10-22T13:57:37.110Z,62.50
2023-10-22T14:00:11.338Z,62.19
2023-10-22T14:02:43.203Z,62.39
2023-10-22T14:05:15.736Z,62.64
2023-10-22T14:07:50.039Z,62.22
2023-10-22T14:10:21.985Z,62.15
2023-10-22T14:12:55.743Z,62.75
2023-10-22T14:15:29.590Z,62.39
2023-10-22T14:18:01.708Z,61.58
2023-10-22T14:20:34.018Z,61.19
2023-10-22T14:23:05.906Z,61.05
2023-10-22T14:25:37.900Z,61.17
2023-10-22T14:28:09.834Z,61.08
2023-10-22T14:30:44.616Z,61.45
2023-10-22T14:33:14.918Z,62.12
2023-10-22T14:35:46.767Z,62.31
2023-10-22T14:38:18.524Z,62.54
2023-10-22T14:40:50.361Z,62.25
2023-10-22T14:43:22.088Z,61.63
2023-10-22T14:45:54.131Z,61.85
2023-10-22T14:48:25.941Z,62.57
2023-10-22T14:50:58.743Z,62.62
2023-10-22T14:53:31.092Z,62.57
2023-10-22T14:56:04.532Z,62.31
2023-10-22T14:58:36.456Z,62.48
2023-10-22T15:01:09.130Z,62.79
2023-10-22T15:03:41.104Z,63.76
2023-10-22T15:06:13.072Z,63.75
2023-10-22T15:08:44.817Z,63.21
2023-10-22T15:11:21.195Z,63.37
2023-10-22T15:13:55.082Z,63.41
2023-10-22T15:16:26.938Z,63.62
2023-10-22T15:18:59.152Z,63.90
2023-10-22T15:21:31.103Z,64.55
2023-10-22T15:24:03.950Z,64.79
2023-10-22T15:26:36.015Z,65.44
2023-10-22T15:29:08.138Z,66.07
2023-10-22T15:31:40.267Z,66.15
2023-10-22T15:34:12.246Z,66.07
2023-10-22T15:36:44.475Z,66.10
2023-10-22T15:39:16.398Z,65.90
2023-10-22T15:41:48.484Z,66.49
2023-10-22T15:44:20.300Z,66.47
2023-10-22T15:46:53.746Z,66.28
2023-10-22T15:49:25.795Z,66.44
2023-10-22T15:51:58.054Z,67.25
2023-10-22T15:54:29.886Z,66.88
2023-10-22T15:57:01.810Z,66.64
2023-10-22T15:59:33.724Z,66.66
2023-10-22T16:02:05.930Z,66.89
2023-10-22T16:04:38.186Z,67.04
2023-10-22T16:07:10.058Z,66.86
2023-10-22T16:09:42.117Z,66.54
2023-10-22T16:12:16.117Z,66.59
2023-10-22T16:14:47.864Z,66.95
2023-10-22T16:17:19.617Z,66.66
2023-10-22T16:19:52.702Z,66.47
2023-10-22T16:22:24.489Z,66.10
2023-10-22T16:24:56.444Z,66.24
2023-10-22T16:27:28.198Z,66.54
2023-10-22T16:30:00.157Z,67.25
2023-10-22T16:32:32.566Z,66.95
2023-10-22T16:35:04.533Z,66.84
2023-10-22T16:37:36.915Z,66.79
2023-10-22T16:40:11.887Z,67.45
2023-10-22T16:42:45.901Z,67.44
2023-10-22T16:45:17.886Z,67.30
2023-10-22T16:47:52.504Z,67.41
2023-10-22T16:50:26.748Z,67.03
2023-10-22T16:52:58.970Z,67.67
2023-10-22T16:55:33.308Z,67.59
2023-10-22T16:58:05.723Z,67.44
2023-10-22T17:00:37.493Z,67.40
2023-10-22T17:03:09.483Z,67.39
2023-10-22T17:05:42.060Z,66.83
2023-10-22T17:08:14.475Z,67.06
2023-10-22T17:10:46.444Z,66.98
2023-10-22T17:13:18.296Z,66.97
2023-10-22T17:15:50.265Z,67.10
2023-10-22T17:18:22.279Z,67.95
2023-10-22T17:20:54.447Z,67.84
2023-10-22T17:23:26.626Z,67.48
2023-10-22T17:25:58.328Z,67.18
2023-10-22T17:28:30.034Z,68.00
2023-10-22T17:31:02.264Z,67.70
2023-10-22T17:33:49.060Z,67.31
2023-10-22T17:36:26.936Z,67.13
2023-10-22T17:38:59.022Z,67.01
2023-10-22T17:41:30.785Z,67.43
2023-10-22T17:44:03.565Z,67.17
2023-10-22T17:46:35.837Z,67.48
2023-10-22T17:49:08.151Z,67.25
2023-10-22T17:51:40.081Z,67.15
2023-10-22T17:54:12.183Z,67.61
2023-10-22T17:56:43.891Z,67.91
2023-10-22T17:59:15.774Z,67.81
2023-10-22T18:01:47.615Z,67.69
2023-10-22T18:04:19.991Z,67.93
2023-10-22T18:06:52.034Z,67.64
2023-10-22T18:09:23.752Z,67.27
2023-10-22T18:11:55.383Z,67.99
2023-10-22T18:14:27.509Z,68.70
2023-10-22T18:16:59.248Z,69.08
2023-10-22T18:19:40.824Z,68.84
2023-10-22T18:22:13.900Z,68.48
2023-10-22T18:24:45.631Z,68.43
2023-10-22T18:27:17.346Z,68.79
2023-10-22T18:29:49.509Z,69.64
2023-10-22T18:32:21.246Z,69.62
2023-10-22T18:34:53.129Z,69.41
2023-10-22T18:37:24.958Z,69.07
2023-10-22T18:39:56.706Z,69.32
2023-10-22T18:42:28.308Z,69.45
2023-10-22T18:45:00.997Z,68.68
2023-10-22T18:47:33.134Z,68.53
2023-10-22T18:50:06.468Z,68.94
2023-10-22T18:52:38.595Z,69.46
2023-10-22T18:55:12.113Z,69.41
2023-10-22T18:57:44.128Z,69.10
2023-10-22T19:00:17.659Z,69.14
2023-10-22T19:02:49.606Z,69.20
2023-10-22T19:05:21.966Z,69.58
2023-10-22T19:07:53.754Z,69.34
2023-10-22T19:10:25.548Z,69.51
2023-10-22T19:12:57.389Z,70.01
2023-10-22T19:15:29.503Z,70.40
2023-10-22T19:18:01.720Z,69.67
2023-10-22T19:20:35.030Z,69.28
2023-10-22T19:23:07.956Z,69.52
2023-10-22T19:25:40.502Z,69.63
2023-10-22T19:28:12.439Z,69.90
2023-10-22T19:30:44.503Z,69.95
2023-10-22T19:33:16.914Z,70.11
2023-10-22T19:35:48.856Z,70.46
2023-10-22T19:38:20.739Z,69.43
2023-10-22T19:40:53.184Z,69.53
2023-10-22T19:43:24.833Z,69.40
2023-10-22T19:45:57.830Z,69.10
2023-10-22T19:48:30.589Z,68.62
2023-10-22T19:51:04.487Z,69.30
2023-10-22T19:53:36.220Z,69.55
2023-10-22T19:56:14.979Z,69.66
2023-10-22T19:58:47.000Z,69.41
2023-10-22T20:01:25.885Z,69.24
2023-10-22T20:03:58.522Z,69.26
2023-10-22T20:06:30.728Z,69.64
2023-10-22T20:09:02.646Z,69.48
2023-10-22T20:11:34.676Z,70.38
2023-10-22T20:14:06.488Z,70.38
2023-10-22T20:16:38.386Z,70.04
2023-10-22T20:19:11.750Z,69.48
2023-10-22T20:21:44.161Z,69.83
2023-10-22T20:24:17.622Z,69.32
2023-10-22T20:26:50.085Z,70.01
2023-10-22T20:29:22.712Z,70.45
2023-10-22T20:31:55.180Z,69.75
2023-10-22T20:34:26.921Z,69.81
2023-10-22T20:37:03.818Z,70.18
2023-10-22T20:39:35.641Z,70.17
2023-10-22T20:42:08.005Z,69.81
2023-10-22T20:44:40.022Z,70.05
2023-10-22T20:47:14.626Z,69.86
2023-10-22T20:49:46.651Z,70.12
2023-10-22T20:52:18.566Z,70.27
2023-10-22T20:54:52.422Z,70.29
2023-10-22T20:57:24.617Z,70.48
2023-10-22T20:59:56.607Z,70.04
2023-10-22T21:02:28.620Z,70.07
2023-10-22T21:05:02.023Z,70.02
2023-10-22T21:07:35.992Z,70.31
2023-10-22T21:10:09.286Z,70.56
2023-10-22T21:12:41.116Z,69.99
2023-10-22T21:15:13.846Z,69.65
2023-10-22T21:17:45.832Z,69.23
2023-10-22T21:20:17.963Z,69.30
2023-10-22T21:22:53.653Z,69.94
2023-10-22T21:25:25.355Z,70.30
2023-10-22T21:27:57.208Z,69.94
2023-10-22T21:30:29.217Z,69.37
2023-10-22T21:33:01.208Z,69.91
2023-10-22T21:35:33.130Z,70.14
2023-10-22T21:38:05.027Z,70.09
2023-10-22T21:40:37.406Z,69.99
2023-10-22T21:43:09.571Z,69.95
2023-10-22T21:45:41.674Z,69.99
2023-10-22T21:48:13.747Z,70.35
2023-10-22T21:50:46.381Z,71.89
2023-10-22T21:53:18.292Z,70.73
2023-10-22T21:55:55.334Z,70.59
2023-10-22T21:58:26.927Z,70.98
2023-10-22T22:01:00.972Z,71.67
2023-10-22T22:03:33.837Z,71.25
2023-10-22T22:06:06.288Z,71.72
2023-10-22T22:08:38.006Z,72.82
2023-10-22T22:11:10.800Z,72.49
2023-10-22T22:13:42.810Z,71.30
2023-10-22T22:16:14.548Z,71.48
2023-10-22T22:18:46.934Z,71.31
2023-10-22T22:21:19.358Z,70.77
2023-10-22T22:23:51.407Z,71.87
2023-10-22T22:26:23.221Z,70.70
2023-10-22T22:28:55.066Z,70.82
2023-10-22T22:31:27.090Z,71.26
2023-10-22T22:33:59.396Z,71.40
2023-10-22T22:36:31.223Z,71.02
2023-10-22T22:39:02.852Z,70.26
2023-10-22T22:41:34.583Z,70.78
2023-10-22T22:44:07.681Z,71.17
2023-10-22T22:46:39.348Z,70.36
2023-10-22T22:49:11.112Z,70.34
2023-10-22T22:51:44.632Z,70.05
2023-10-22T22:54:16.851Z,70.62
2023-10-22T22:56:48.694Z,70.78
2023-10-22T22:59:20.313Z,70.16
2023-10-22T23:01:51.966Z,69.31
2023-10-22T23:04:24.037Z,69.21
2023-10-22T23:06:55.613Z,70.09
2023-10-22T23:09:27.302Z,70.70
2023-10-22T23:11:58.935Z,70.70
2023-10-22T23:14:30.589Z,70.73
2023-10-22T23:17:02.142Z,70.91
2023-10-22T23:19:33.701Z,71.50
2023-10-22T23:22:05.397Z,71.12
2023-10-22T23:24:37.488Z,70.35
2023-10-22T23:27:09.263Z,69.96
2023-10-22T23:29:42.960Z,70.02
2023-10-22T23:32:14.678Z,71.10
2023-10-22T23:34:46.717Z,71.94
2023-10-22T23:37:18.419Z,71.62
2023-10-22T23:39:50.054Z,71.78
2023-10-22T23:42:21.787Z,72.36
2023-10-22T23:44:53.464Z,72.06
2023-10-22T23:47:25.462Z,71.55
2023-10-22T23:49:56.996Z,72.60
2023-10-22T23:52:28.709Z,72.34
2023-10-22T23:55:00.331Z,73.03
2023-10-22T23:57:32.278Z,73.07
